createdAt,value
2023-03-06T00:00:07.804Z,5.53
2023-03-06T00:02:34.617Z,4.95
2023-03-06T00:05:01.465Z,5.50
2023-03-06T00:07:34.587Z,5.65
2023-03-06T00:10:01.416Z,5.70
2023-03-06T00:12:28.187Z,6.07
2023-03-06T00:15:01.945Z,6.00
2023-03-06T00:17:29.415Z,6.00
2023-03-06T00:19:56.372Z,6.10
2023-03-06T00:22:29.781Z,6.30
2023-03-06T00:24:56.665Z,5.75
2023-03-06T00:27:26.211Z,5.85
2023-03-06T00:30:04.642Z,6.07
2023-03-06T00:32:37.644Z,5.68
2023-03-06T00:35:04.903Z,5.57
2023-03-06T00:37:31.784Z,6.25
2023-03-06T00:40:05.699Z,6.43
2023-03-06T00:42:32.799Z,6.88
2023-03-06T00:44:59.585Z,8.07
2023-03-06T00:47:32.687Z,7.47
2023-03-06T00:49:59.551Z,7.70
2023-03-06T00:52:26.506Z,7.57
2023-03-06T00:54:59.681Z,7.70
2023-03-06T00:57:26.540Z,6.88
2023-03-06T00:59:53.390Z,7.38
2023-03-06T01:02:26.709Z,8.13
2023-03-06T01:04:53.562Z,8.13
2023-03-06T01:07:20.364Z,8.95
2023-03-06T01:09:53.680Z,8.30
2023-03-06T01:12:26.792Z,10.30
2023-03-06T01:14:53.967Z,10.27
2023-03-06T01:17:20.772Z,10.75
2023-03-06T01:19:53.698Z,11.73
2023-03-06T01:22:20.568Z,12.25
2023-03-06T01:24:47.364Z,11.13
2023-03-06T01:27:20.729Z,11.35
2023-03-06T01:29:47.557Z,11.77
2023-03-06T01:32:20.754Z,11.52
2023-03-06T01:34:47.584Z,12.68
2023-03-06T01:37:20.989Z,12.05
2023-03-06T01:39:47.727Z,11.05
2023-03-06T01:42:14.489Z,11.40
2023-03-06T01:45:26.751Z,11.88
2023-03-06T01:47:53.648Z,10.75
2023-03-06T01:50:20.586Z,10.60
2023-03-06T01:52:58.787Z,9.85
2023-03-06T01:55:33.008Z,11.35
2023-03-06T01:58:09.764Z,10.30
2023-03-06T02:00:36.554Z,10.25
2023-03-06T02:03:24.759Z,11.13
2023-03-06T02:05:51.634Z,10.68
2023-03-06T02:08:20.561Z,11.85
2023-03-06T02:11:19.781Z,11.07
2023-03-06T02:13:47.902Z,10.63
2023-03-06T02:16:16.380Z,11.32
2023-03-06T02:18:52.829Z,11.55
2023-03-06T02:21:39.846Z,10.02
2023-03-06T02:24:27.840Z,10.57
2023-03-06T02:27:03.083Z,10.70
2023-03-06T02:29:30.596Z,9.80
2023-03-06T02:31:57.838Z,9.88
2023-03-06T02:34:30.879Z,9.70
2023-03-06T02:37:17.845Z,9.90
2023-03-06T02:39:48.463Z,10.52
2023-03-06T02:42:27.824Z,11.18
2023-03-06T02:44:57.073Z,11.18
2023-03-06T02:47:24.121Z,11.40
2023-03-06T02:49:57.822Z,10.60
2023-03-06T02:52:24.709Z,11.57
2023-03-06T02:54:58.179Z,10.15
2023-03-06T02:57:25.028Z,11.13
2023-03-06T02:59:51.964Z,11.10
2023-03-06T03:02:24.887Z,10.82
2023-03-06T03:04:51.891Z,10.05
2023-03-06T03:07:18.643Z,10.80
2023-03-06T03:09:51.858Z,10.68
2023-03-06T03:12:18.760Z,9.52
2023-03-06T03:14:45.520Z,8.65
2023-03-06T03:17:18.895Z,8.50
2023-03-06T03:19:45.741Z,8.90
2023-03-06T03:22:13.069Z,8.98
2023-03-06T03:24:46.921Z,8.30
2023-03-06T03:27:14.745Z,7.90
2023-03-06T03:29:42.662Z,8.15
2023-03-06T03:32:16.907Z,8.30
2023-03-06T03:34:49.868Z,8.18
2023-03-06T03:37:16.897Z,8.10
2023-03-06T03:39:49.938Z,8.10
2023-03-06T03:42:22.947Z,8.05
2023-03-06T03:44:49.838Z,8.25
2023-03-06T03:47:22.910Z,7.93
2023-03-06T03:49:55.913Z,8.20
2023-03-06T03:52:28.911Z,8.45
2023-03-06T03:55:01.894Z,8.02
2023-03-06T03:57:28.702Z,8.32
2023-03-06T04:00:01.957Z,9.77
2023-03-06T04:02:28.767Z,9.35
2023-03-06T04:04:56.129Z,10.63
2023-03-06T04:07:29.929Z,10.73
2023-03-06T04:10:03.002Z,11.30
2023-03-06T04:12:29.869Z,11.18
2023-03-06T04:15:02.959Z,10.63
2023-03-06T04:17:35.933Z,11.18
2023-03-06T04:20:10.983Z,11.10
2023-03-06T04:22:44.029Z,10.18
2023-03-06T04:25:10.814Z,10.77
2023-03-06T04:27:44.008Z,10.95
2023-03-06T04:30:11.579Z,10.57
2023-03-06T04:32:45.002Z,9.93
2023-03-06T04:35:12.076Z,9.75
2023-03-06T04:37:45.973Z,9.15
2023-03-06T04:40:26.982Z,7.90
2023-03-06T04:43:02.015Z,6.93
2023-03-06T04:45:37.072Z,6.38
2023-03-06T04:48:04.585Z,5.78
2023-03-06T04:50:39.022Z,5.82
2023-03-06T04:53:05.890Z,4.97
2023-03-06T04:55:39.027Z,4.95
2023-03-06T04:58:05.886Z,4.97
2023-03-06T05:00:39.232Z,5.00
2023-03-06T05:03:06.428Z,4.65
2023-03-06T05:05:33.837Z,4.50
2023-03-06T05:08:08.026Z,4.45
2023-03-06T05:10:38.758Z,5.57
2023-03-06T05:13:12.052Z,5.00
2023-03-06T05:15:45.186Z,5.68
2023-03-06T05:18:18.109Z,6.25
2023-03-06T05:20:45.248Z,5.22
2023-03-06T05:23:12.726Z,4.38
2023-03-06T05:25:47.078Z,3.95
2023-03-06T05:28:13.805Z,4.03
2023-03-06T05:30:47.104Z,4.22
2023-03-06T05:33:13.879Z,3.70
2023-03-06T05:35:53.129Z,3.80
2023-03-06T05:38:26.052Z,3.53
2023-03-06T05:40:53.332Z,3.95
2023-03-06T05:43:27.056Z,3.83
2023-03-06T05:46:09.122Z,3.65
2023-03-06T05:48:46.472Z,4.30
2023-03-06T05:51:20.124Z,3.72
2023-03-06T05:53:47.382Z,3.72
2023-03-06T05:56:21.081Z,3.63
2023-03-06T05:58:55.108Z,3.47
2023-03-06T06:01:22.252Z,3.67
2023-03-06T06:03:56.120Z,3.72
2023-03-06T06:06:22.954Z,3.63
2023-03-06T06:08:49.743Z,4.07
2023-03-06T06:11:25.114Z,4.05
2023-03-06T06:13:51.856Z,4.00
2023-03-06T06:16:26.104Z,4.10
2023-03-06T06:18:52.938Z,3.63
2023-03-06T06:21:26.133Z,3.65
2023-03-06T06:23:53.020Z,3.03
2023-03-06T06:26:26.175Z,3.10
2023-03-06T06:29:00.244Z,3.50
2023-03-06T06:31:27.257Z,3.10
2023-03-06T06:34:00.157Z,2.63
2023-03-06T06:36:33.146Z,2.83
2023-03-06T06:39:00.196Z,2.70
2023-03-06T06:41:51.069Z,3.30
2023-03-06T06:44:20.692Z,2.72
2023-03-06T06:49:48.202Z,2.97
2023-03-06T06:52:21.231Z,2.88
2023-03-06T06:54:54.214Z,2.78
2023-03-06T06:57:28.223Z,2.85
2023-03-06T06:59:55.071Z,1.92
2023-03-06T07:02:28.214Z,1.83
2023-03-06T07:05:04.215Z,1.92
2023-03-06T07:07:41.242Z,1.80
2023-03-06T07:10:21.199Z,1.65
2023-03-06T07:12:48.102Z,1.55
2023-03-06T07:15:16.727Z,1.38
2023-03-06T07:17:50.469Z,1.30
2023-03-06T07:20:17.848Z,1.38
2023-03-06T07:22:51.937Z,1.80
2023-03-06T07:25:19.617Z,1.73
2023-03-06T07:27:54.248Z,1.80
2023-03-06T07:30:24.890Z,1.90
2023-03-06T07:33:03.333Z,1.75
2023-03-06T07:35:30.232Z,3.90
2023-03-06T07:38:04.260Z,2.60
2023-03-06T07:40:31.182Z,2.38
2023-03-06T07:43:18.832Z,2.15
2023-03-06T07:45:46.953Z,2.30
2023-03-06T07:48:21.354Z,2.05
2023-03-06T07:50:56.433Z,2.33
2023-03-06T07:53:31.338Z,1.95
2023-03-06T07:55:58.717Z,2.33
2023-03-06T07:58:25.756Z,2.60
2023-03-06T08:00:59.262Z,2.30
2023-03-06T08:03:26.056Z,2.83
2023-03-06T08:05:59.368Z,2.33
2023-03-06T08:08:26.286Z,2.40
2023-03-06T08:10:59.330Z,2.15
2023-03-06T08:13:26.205Z,2.20
2023-03-06T08:15:59.356Z,1.83
2023-03-06T08:18:27.528Z,2.10
2023-03-06T08:21:14.325Z,2.08
2023-03-06T08:23:41.843Z,1.90
2023-03-06T08:26:25.361Z,1.90
2023-03-06T08:29:00.368Z,1.77
2023-03-06T08:31:45.381Z,1.48
2023-03-06T08:34:25.348Z,1.90
2023-03-06T08:36:58.352Z,1.50
2023-03-06T08:39:25.098Z,1.77
2023-03-06T08:41:58.386Z,1.45
2023-03-06T08:44:31.390Z,1.30
2023-03-06T08:46:58.338Z,1.60
2023-03-06T08:49:25.173Z,1.40
2023-03-06T08:51:58.371Z,1.45
2023-03-06T08:54:31.371Z,1.15
2023-03-06T08:56:58.124Z,1.05
2023-03-06T08:59:37.379Z,1.17
2023-03-06T09:02:05.631Z,1.20
2023-03-06T09:04:39.458Z,1.30
2023-03-06T09:07:06.275Z,1.00
2023-03-06T09:09:39.418Z,0.82
2023-03-06T09:12:14.418Z,1.00
2023-03-06T09:14:47.441Z,1.08
2023-03-06T09:17:20.444Z,1.00
2023-03-06T09:20:00.423Z,1.15
2023-03-06T09:22:27.181Z,1.20
2023-03-06T09:25:00.512Z,1.50
2023-03-06T09:27:34.440Z,1.83
2023-03-06T09:30:01.634Z,1.50
2023-03-06T09:32:35.525Z,1.30
2023-03-06T09:35:02.332Z,1.02
2023-03-06T09:37:29.152Z,1.00
2023-03-06T09:40:02.487Z,1.08
2023-03-06T09:42:36.178Z,0.80
2023-03-06T09:45:12.579Z,0.90
2023-03-06T09:47:46.225Z,1.00
2023-03-06T09:50:47.484Z,1.25
2023-03-06T09:53:17.115Z,1.10
2023-03-06T09:55:56.456Z,0.90
2023-03-06T09:58:32.523Z,0.95
2023-03-06T10:01:22.558Z,0.82
2023-03-06T10:04:14.523Z,0.80
2023-03-06T10:06:50.265Z,1.00
2023-03-06T10:09:58.669Z,0.80
2023-03-06T10:12:33.504Z,0.90
2023-03-06T10:15:11.513Z,0.70
2023-03-06T10:17:43.797Z,0.82
2023-03-06T10:20:29.523Z,0.80
2023-03-06T10:23:26.753Z,0.70
2023-03-06T10:26:13.537Z,0.75
2023-03-06T10:29:00.530Z,0.60
2023-03-06T10:31:35.540Z,0.70
2023-03-06T10:34:13.781Z,0.65
2023-03-06T10:36:47.550Z,0.45
2023-03-06T10:39:21.236Z,0.65
2023-03-06T10:41:55.548Z,0.60
2023-03-06T10:44:24.186Z,0.50
2023-03-06T10:47:36.580Z,0.50
2023-03-06T10:50:20.604Z,0.90
2023-03-06T10:53:00.351Z,0.77
2023-03-06T10:55:36.571Z,0.70
2023-03-06T10:58:39.622Z,0.57
2023-03-06T11:01:27.660Z,0.80
2023-03-06T11:04:15.422Z,0.90
2023-03-06T11:06:49.628Z,1.02
2023-03-06T11:09:23.648Z,1.90
2023-03-06T11:11:57.597Z,2.03
2023-03-06T11:14:50.626Z,8.35
2023-03-06T11:17:28.737Z,3.40
2023-03-06T11:20:50.366Z,1.08
2023-03-06T11:25:57.233Z,1.15
2023-03-06T11:28:55.597Z,1.10
2023-03-06T11:31:34.735Z,1.00
2023-03-06T11:34:34.641Z,1.13
2023-03-06T11:37:39.538Z,1.20
2023-03-06T11:43:42.628Z,1.30
2023-03-06T11:46:27.903Z,1.23
2023-03-06T11:49:12.652Z,1.00
2023-03-06T11:51:48.110Z,1.58
2023-03-06T11:54:21.671Z,1.60
2023-03-06T11:57:09.945Z,1.52
2023-03-06T12:00:07.658Z,1.48
2023-03-06T12:03:01.287Z,1.60
2023-03-06T12:06:16.667Z,2.28
2023-03-06T12:08:51.917Z,2.28
2023-03-06T12:11:52.684Z,2.20
2023-03-06T12:14:37.729Z,2.05
2023-03-06T12:17:28.667Z,2.05
2023-03-06T12:20:20.699Z,2.20
2023-03-06T12:23:14.228Z,2.85
2023-03-06T12:25:59.773Z,3.35
2023-03-06T12:28:45.441Z,3.28
2023-03-06T12:31:25.846Z,3.63
2023-03-06T12:34:11.181Z,4.18
2023-03-06T12:36:55.734Z,4.32
2023-03-06T12:39:42.789Z,5.32
2023-03-06T12:42:47.048Z,5.50
2023-03-06T12:45:33.110Z,6.05
2023-03-06T12:48:07.767Z,5.97
2023-03-06T12:50:38.483Z,5.65
2023-03-06T12:53:14.800Z,7.20
2023-03-06T12:55:46.050Z,6.75
2023-03-06T12:58:37.791Z,6.25
2023-03-06T13:01:13.796Z,6.95
2023-03-06T13:03:52.292Z,7.55
2023-03-06T13:06:53.780Z,7.25
2023-03-06T13:09:41.817Z,7.00
2023-03-06T13:12:31.905Z,8.05
2023-03-06T13:15:07.854Z,8.23
2023-03-06T13:17:43.825Z,9.05
2023-03-06T13:20:19.835Z,9.10
2023-03-06T13:22:47.896Z,8.00
2023-03-06T13:25:23.860Z,8.88
2023-03-06T13:27:53.455Z,9.00
2023-03-06T13:30:53.153Z,8.50
2023-03-06T13:33:32.921Z,8.60
2023-03-06T13:36:26.908Z,8.05
2023-03-06T13:38:56.294Z,8.57
2023-03-06T13:41:29.846Z,8.55
2023-03-06T13:44:02.999Z,8.10
2023-03-06T13:46:43.869Z,7.53
2023-03-06T13:49:10.678Z,7.15
2023-03-06T13:51:47.831Z,7.32
2023-03-06T13:54:39.648Z,6.70
2023-03-06T13:57:41.887Z,6.93
2023-03-06T14:00:11.919Z,6.82
2023-03-06T14:02:57.934Z,5.25
2023-03-06T14:05:34.754Z,6.15
2023-03-06T14:08:16.884Z,5.80
2023-03-06T14:10:46.056Z,5.20
2023-03-06T14:13:35.211Z,5.63
2023-03-06T14:16:17.172Z,6.68
2023-03-06T14:18:53.883Z,7.38
2023-03-06T14:21:31.076Z,7.30
2023-03-06T14:24:09.870Z,7.10
2023-03-06T14:26:46.891Z,6.80
2023-03-06T14:29:34.916Z,6.90
2023-03-06T14:32:13.002Z,7.03
2023-03-06T14:34:45.928Z,6.82
2023-03-06T14:37:31.938Z,6.70
2023-03-06T14:40:04.989Z,7.82
2023-03-06T14:42:32.029Z,8.15
2023-03-06T14:45:11.925Z,8.10
2023-03-06T14:47:44.930Z,8.10
2023-03-06T14:50:29.363Z,8.05
2023-03-06T14:53:11.004Z,7.05
2023-03-06T14:55:37.936Z,7.13
2023-03-06T14:58:22.963Z,8.20
2023-03-06T15:00:52.000Z,7.38
2023-03-06T15:03:33.909Z,6.47
2023-03-06T15:06:08.001Z,7.20
2023-03-06T15:08:39.162Z,6.78
2023-03-06T15:11:07.357Z,6.55
2023-03-06T15:13:42.026Z,6.68
2023-03-06T15:16:40.067Z,6.47
2023-03-06T15:19:25.032Z,6.45
2023-03-06T15:21:59.025Z,6.72
2023-03-06T15:24:41.981Z,7.22
2023-03-06T15:27:25.037Z,7.75
2023-03-06T15:29:51.913Z,7.43
2023-03-06T15:32:41.125Z,6.60
2023-03-06T15:35:28.433Z,7.25
2023-03-06T15:38:03.049Z,8.45
2023-03-06T15:40:38.051Z,8.68
2023-03-06T15:43:10.655Z,9.00
2023-03-06T15:45:37.523Z,10.00
2023-03-06T15:48:21.006Z,10.35
2023-03-06T15:50:47.994Z,9.75
2023-03-06T15:53:21.091Z,10.82
2023-03-06T15:55:48.004Z,10.20
2023-03-06T15:58:31.151Z,9.63
2023-03-06T16:00:58.009Z,10.00
2023-03-06T16:03:31.069Z,9.32
2023-03-06T16:05:57.860Z,8.90
2023-03-06T16:08:24.780Z,9.55
2023-03-06T16:10:59.167Z,11.60
2023-03-06T16:13:29.459Z,12.93
2023-03-06T16:16:03.092Z,12.90
2023-03-06T16:18:31.478Z,15.05
2023-03-06T16:21:05.173Z,16.02
2023-03-06T16:23:32.052Z,16.75
2023-03-06T16:26:05.079Z,16.45
2023-03-06T16:28:32.680Z,19.10
2023-03-06T16:31:06.122Z,18.83
2023-03-06T16:33:32.978Z,18.25
2023-03-06T16:36:06.122Z,19.45
2023-03-06T16:38:36.873Z,19.52
2023-03-06T16:41:10.144Z,18.42
2023-03-06T16:43:43.096Z,19.17
2023-03-06T16:46:35.091Z,17.63
2023-03-06T16:49:08.115Z,17.05
2023-03-06T16:51:37.180Z,16.73
2023-03-06T16:54:11.202Z,15.77
2023-03-06T16:56:37.989Z,16.92
2023-03-06T16:59:12.137Z,17.08
2023-03-06T17:01:42.498Z,15.70
2023-03-06T17:04:16.164Z,14.77
2023-03-06T17:06:43.158Z,14.82
2023-03-06T17:09:21.190Z,14.10
2023-03-06T17:11:47.961Z,14.25
2023-03-06T17:14:22.266Z,13.85
2023-03-06T17:16:49.085Z,13.70
2023-03-06T17:19:15.885Z,14.75
2023-03-06T17:21:50.213Z,14.60
2023-03-06T17:24:23.202Z,15.20
2023-03-06T17:26:50.004Z,15.50
2023-03-06T17:29:23.198Z,16.42
2023-03-06T17:31:50.028Z,17.42
2023-03-06T17:34:17.089Z,15.88
2023-03-06T17:36:50.220Z,16.13
2023-03-06T17:39:23.176Z,16.95
2023-03-06T17:41:50.011Z,17.02
2023-03-06T17:44:23.209Z,17.77
2023-03-06T17:46:56.221Z,17.48
2023-03-06T17:49:31.219Z,18.08
2023-03-06T17:51:59.870Z,18.10
2023-03-06T17:54:36.201Z,18.08
2023-03-06T17:57:05.276Z,18.58
2023-03-06T17:59:43.235Z,19.02
2023-03-06T18:02:10.106Z,19.25
2023-03-06T18:04:45.288Z,19.58
2023-03-06T18:07:12.121Z,19.27
2023-03-06T18:09:41.832Z,19.25
2023-03-06T18:12:15.255Z,18.65
2023-03-06T18:14:42.049Z,18.73
2023-03-06T18:17:15.243Z,19.95
2023-03-06T18:19:42.060Z,18.90
2023-03-06T18:22:15.246Z,19.90
2023-03-06T18:24:42.065Z,19.63
2023-03-06T18:27:15.236Z,18.52
2023-03-06T18:29:48.253Z,20.02
2023-03-06T18:32:18.917Z,19.63
2023-03-06T18:34:46.176Z,20.67
2023-03-06T18:37:19.298Z,20.40
2023-03-06T18:39:46.193Z,21.48
2023-03-06T18:42:19.302Z,22.30
2023-03-06T18:44:48.065Z,20.08
2023-03-06T18:47:22.347Z,19.95
2023-03-06T18:49:49.209Z,18.67
2023-03-06T18:52:22.292Z,19.50
2023-03-06T18:54:50.472Z,20.75
2023-03-06T18:57:24.289Z,19.50
2023-03-06T18:59:51.231Z,20.00
2023-03-06T19:02:24.354Z,20.65
2023-03-06T19:04:59.349Z,21.65
2023-03-06T19:07:26.178Z,20.42
2023-03-06T19:10:00.348Z,19.98
2023-03-06T19:12:34.320Z,20.77
2023-03-06T19:15:10.378Z,20.17
2023-03-06T19:17:38.119Z,21.00
2023-03-06T19:20:12.382Z,19.55
2023-03-06T19:22:45.401Z,21.05
2023-03-06T19:25:18.390Z,21.85
2023-03-06T19:27:52.384Z,21.30
2023-03-06T19:30:32.356Z,21.75
2023-03-06T19:32:59.373Z,21.30
2023-03-06T19:35:33.473Z,21.10
2023-03-06T19:38:06.371Z,21.83
2023-03-06T19:40:34.125Z,20.73
2023-03-06T19:43:07.415Z,22.90
2023-03-06T19:45:34.214Z,24.75
2023-03-06T19:48:07.420Z,23.58
2023-03-06T19:50:35.092Z,21.25
2023-03-06T19:53:08.420Z,23.85
2023-03-06T19:55:41.415Z,23.45
2023-03-06T19:58:15.396Z,23.50
2023-03-06T20:00:42.868Z,23.83
2023-03-06T20:03:09.667Z,24.40
2023-03-06T20:05:43.446Z,24.23
2023-03-06T20:08:16.420Z,23.98
2023-03-06T20:10:49.470Z,23.92
2023-03-06T20:13:16.304Z,23.48
2023-03-06T20:15:49.530Z,24.15
2023-03-06T20:18:23.484Z,24.98
2023-03-06T20:21:01.560Z,25.02
2023-03-06T20:23:35.440Z,24.52
2023-03-06T20:26:15.513Z,22.42
2023-03-06T20:28:43.131Z,23.10
2023-03-06T20:31:27.539Z,25.92
2023-03-06T20:34:07.495Z,23.73
2023-03-06T20:36:43.462Z,21.92
2023-03-06T20:39:14.084Z,21.67
2023-03-06T20:41:48.532Z,22.20
2023-03-06T20:44:18.424Z,22.08
2023-03-06T20:46:52.514Z,22.25
2023-03-06T20:49:19.688Z,20.17
2023-03-06T20:51:53.497Z,21.35
2023-03-06T20:54:20.293Z,20.02
2023-03-06T20:56:55.550Z,20.67
2023-03-06T20:59:30.500Z,21.83
2023-03-06T21:02:04.069Z,20.10
2023-03-06T21:04:37.555Z,20.10
2023-03-06T21:07:04.353Z,20.85
2023-03-06T21:09:39.519Z,20.48
2023-03-06T21:12:06.543Z,21.85
2023-03-06T21:14:33.480Z,20.00
2023-03-06T21:17:07.528Z,21.58
2023-03-06T21:19:34.320Z,22.02
2023-03-06T21:22:10.602Z,20.92
2023-03-06T21:24:37.407Z,19.88
2023-03-06T21:27:10.799Z,18.92
2023-03-06T21:29:37.646Z,18.63
2023-03-06T21:32:04.735Z,16.13
2023-03-06T21:34:38.550Z,14.68
2023-03-06T21:37:05.712Z,12.73
2023-03-06T21:39:38.559Z,11.98
2023-03-06T21:42:05.520Z,11.45
2023-03-06T21:44:39.610Z,11.60
2023-03-06T21:47:06.714Z,10.63
2023-03-06T21:49:40.562Z,11.18
2023-03-06T21:52:07.412Z,10.80
2023-03-06T21:54:40.562Z,11.25
2023-03-06T21:57:07.445Z,11.00
2023-03-06T21:59:40.744Z,10.70
2023-03-06T22:02:07.504Z,9.05
2023-03-06T22:04:34.422Z,8.27
2023-03-06T22:07:07.584Z,7.40
2023-03-06T22:09:36.859Z,6.72
2023-03-06T22:12:10.749Z,5.82
2023-03-06T22:14:37.681Z,5.97
2023-03-06T22:17:04.583Z,6.35
2023-03-06T22:19:37.601Z,7.70
2023-03-06T22:22:04.955Z,6.78
2023-03-06T22:24:32.110Z,7.00
2023-03-06T22:27:05.774Z,6.85
2023-03-06T22:29:32.604Z,6.35
2023-03-06T22:31:59.383Z,5.90
2023-03-06T22:34:33.627Z,5.60
2023-03-06T22:37:00.480Z,4.97
2023-03-06T22:39:33.668Z,4.70
2023-03-06T22:42:00.504Z,3.97
2023-03-06T22:44:27.247Z,3.85
2023-03-06T22:47:00.763Z,3.30
2023-03-06T22:49:27.608Z,3.15
2023-03-06T22:51:54.334Z,3.72
2023-03-06T22:54:27.745Z,3.45
2023-03-06T22:57:00.805Z,3.85
2023-03-06T22:59:27.555Z,3.22
2023-03-06T23:01:54.305Z,3.30
2023-03-06T23:04:27.696Z,3.25
2023-03-06T23:06:55.544Z,4.38
2023-03-06T23:09:22.966Z,6.85
2023-03-06T23:11:56.941Z,7.28
2023-03-06T23:14:23.972Z,7.25
2023-03-06T23:16:51.043Z,8.00
2023-03-06T23:19:24.722Z,8.68
2023-03-06T23:21:58.021Z,9.70
2023-03-06T23:24:25.251Z,10.45
2023-03-06T23:26:52.105Z,10.55
2023-03-06T23:29:25.740Z,9.88
2023-03-06T23:31:58.745Z,10.02
2023-03-06T23:34:25.709Z,10.50
2023-03-06T23:36:52.525Z,10.25
2023-03-06T23:39:25.698Z,10.82
2023-03-06T23:41:52.517Z,10.93
2023-03-06T23:44:25.741Z,10.07
2023-03-06T23:46:52.848Z,9.57
2023-03-06T23:49:21.879Z,9.40
2023-03-06T23:51:55.750Z,9.52
2023-03-06T23:54:24.862Z,8.75
2023-03-06T23:56:51.656Z,8.10
2023-03-06T23:59:24.744Z,7.78
